This is the latest recevied weather packets stored in our database for station/object PE2ETE-15. If no packets are shown the sender has not sent any weather packets the latest 10 day(s).
| Time | Temp. | Humidity | Pressure | Rain* | Wind** | Luminosity | Snow |
|---|---|---|---|---|---|---|---|
| 1777491201 | 12.78° C | 52% | 1030.9 hPa | - | - | - | - |
| 1777490306 | 13.33° C | 51% | 1030.7 hPa | - | - | - | - |
| 1777490300 | 13.33° C | 51% | 1030.7 hPa | - | - | - | - |
| 1777489407 | 13.89° C | 50% | 1030.4 hPa | - | - | - | - |
| 1777489400 | 13.89° C | 50% | 1030.4 hPa | - | - | - | - |
| 1777488507 | 14.44° C | 49% | 1030.3 hPa | - | - | - | - |
| 1777488499 | 14.44° C | 49% | 1030.3 hPa | - | - | - | - |
| 1777487604 | 15° C | 49% | 1030 hPa | - | - | - | - |
| 1777487604 | 15° C | 49% | 1030 hPa | - | - | - | - |
| 1777486704 | 15.56° C | 47% | 1029.8 hPa | - | - | - | - |
| 1777485805 | 15.56° C | 46% | 1029.7 hPa | - | - | - | - |
| 1777485802 | 15.56° C | 46% | 1029.7 hPa | - | - | - | - |
| 1777484904 | 16.11° C | 45% | 1029.6 hPa | - | - | - | - |
| 1777484903 | 16.11° C | 45% | 1029.6 hPa | - | - | - | - |
| 1777484004 | 16.67° C | 44% | 1029.5 hPa | - | - | - | - |
| 1777483104 | 16.67° C | 43% | 1029.5 hPa | - | - | - | - |
| 1777482204 | 17.22° C | 41% | 1029.5 hPa | - | - | - | - |
| 1777482200 | 17.22° C | 41% | 1029.5 hPa | - | - | - | - |
| 1777481304 | 16.67° C | 41% | 1029.4 hPa | - | - | - | - |
| 1777480404 | 16.67° C | 40% | 1029.5 hPa | - | - | - | - |
| 1777479504 | 17.22° C | 40% | 1029.5 hPa | - | - | - | - |
| 1777479499 | 17.22° C | 40% | 1029.5 hPa | - | - | - | - |
| 1777478603 | 17.22° C | 40% | 1029.7 hPa | - | - | - | - |
| 1777478599 | 17.22° C | 40% | 1029.7 hPa | - | - | - | - |
| 1777477703 | 17.22° C | 40% | 1029.7 hPa | - | - | - | - |
* Rain since midnight (hover to see other rain measurements)
** Current wind speed in m/s (hover to see current wind gust speed)